WMKK Airport Information

Runway Information
Runway 14L Length 13530 ft width 197 ft
Elevation 55 ft Threshold 0 ft Heading 146
Runway 32R Length 13530 ft Width 197 ft
Elevation 70 ft Threshold 344 ft Heading 326
Runway 14R Length 13288 ft width 197 ft
Elevation 54 ft Threshold 184 ft Heading 146
Runway 32L Length 13288 ft Width 197 ft
Elevation 48 ft Threshold 0 ft Heading 326
Runway 15 Length 12993 ft width 197 ft
Elevation 27 ft Threshold 0 ft Heading 146
Runway 33 Length 12993 ft Width 197 ft
Elevation 27 ft Threshold 0 ft Heading 326
Airport Frequencies
Type A/D Name LUMPUR APP Frequency 119.45 MHZ
Type ATIS Name LUMPUR ATI Frequency 126.45 MHZ
Type ATIS Name LUMPUR ATI Frequency 128.05 MHZ
Type CLD Name LUMPUR CLN Frequency 126 MHZ
Type DEPT Name LUMPUR DEP Frequency 135.25 MHZ
Type GND Name LUMPUR GND Frequency 121.65 MHZ
Type GND Name LUMPUR GND Frequency 122.275 MHZ
Type TWR Name LUMPUR TWR Frequency 118.5 MHZ
Type TWR Name LUMPUR TWR Frequency 118.8 MHZ
Type TWR Name LUMPUR TWR Frequency 119.8 MHZ
Airport Navaids
Type VOR-DME Name Kuala Lumpur Frequency 116100 KHZ
Airport Weather Information & NOTAM
ADDS - METARS form results

(2111 UTC 07 March 2021)
Data provider http://aviationweather.gov/metar/data/
 
METAR text: WMKK 072100Z 00000KT 5000 BR FEW000 24/23 Q1011 NOSIG
Conditions at: WMKK (KUALA LUMPUR/SUB, MY) observed 2100 UTC 07 March 2021
Temperature: 24.0°C (75°F)
Dewpoint: 23.0°C (73°F) [RH = 94%]
Pressure (altimeter): 29.85 inches Hg (1011.0 mb)
Winds: calm
Visibility: 3 miles ( 5 km)
Ceiling: at least 12,000 feet AGL
Clouds: few clouds at 0 feet AGL
Weather: BR  (mist)

METAR text: WMKK 072030Z 00000KT 5000 BR FEW000 23/23 Q1011 NOSIG
Conditions at: WMKK (KUALA LUMPUR/SUB, MY) observed 2030 UTC 07 March 2021
Temperature: 23.0°C (73°F)
Dewpoint: 23.0°C (73°F) [RH = 100%]
Pressure (altimeter): 29.85 inches Hg (1011.0 mb)
Winds: calm
Visibility: 3 miles ( 5 km)
Ceiling: at least 12,000 feet AGL
Clouds: few clouds at 0 feet AGL
Weather: BR  (mist)

Forecast for: WMKK (KUALA LUMPUR/SUB, MY)
Text: TAF WMKK 071700Z 0718/0900 VRB02KT 8000 FEW010
Forecast period: 1800 UTC 07 March 2021 to 0000 UTC 08 March 2021
Forecast type: FROM: standard forecast or significant change
Winds: variable direction winds at 2 MPH (2 knots; 1.0 m/s)
Visibility: 5 miles (8 km)
Ceiling: at least 12,000 feet AGL
Clouds: few clouds at 1000 feet AGL
Weather: no significant weather forecast for this period
Text: BECMG 0800/0802 05006KT FEW018
Forecast period: 0000 UTC 08 March 2021 to 0000 UTC 09 March 2021
Forecast type: BECOMING: Conditions expected to become as follows by 0200 UTC 08 March 2021
Winds: from the NE (50 degrees) at 7 MPH (6 knots; 3.1 m/s)
Visibility: 5 miles (8 km)
Ceiling: at least 12,000 feet AGL
Clouds: few clouds at 1800 feet AGL
Weather: no significant weather forecast for this period